Time;durP1;ratioP1;P1;durP2;ratioP2;P2;SDS_P1;SDS_P2;PMS_P1;PMS_P2;Temp;Humidity;BMP_temperature;BMP_pressure;BME280_temperature;BME280_humidity;BME280_pressure;Samples;Min_cycle;Max_cycle;Signal;HPM_P1;HPM_P2
2022/10/09 00:00:03;;;;;;;15.48;4.45;;;7.60;99.90;;;;;;5055620;28;20052;-60
2022/10/09 00:02:29;;;;;;;16.08;4.75;;;7.50;99.90;;;;;;5055376;28;20044;-60
2022/10/09 00:04:55;;;;;;;9.27;4.38;;;7.50;99.90;;;;;;5055164;28;20049;-60
2022/10/09 00:07:21;;;;;;;12.02;4.50;;;7.90;99.90;;;;;;5055136;28;20136;-60
2022/10/09 00:09:49;;;;;;;13.20;5.03;;;;;;;;;;5055211;28;20045;-60
2022/10/09 00:12:15;;;;;;;11.95;4.18;;;7.10;99.90;;;;;;5055043;28;20045;-61
2022/10/09 00:14:41;;;;;;;10.00;4.38;;;;;;;;;;5053176;28;20091;-61
2022/10/09 00:17:07;;;;;;;14.02;5.10;;;7.30;99.90;;;;;;5053792;28;20037;-61
2022/10/09 00:19:33;;;;;;;13.50;5.35;;;7.80;99.90;;;;;;5054175;28;20125;-61
2022/10/09 00:21:59;;;;;;;9.55;4.30;;;;;;;;;;5054032;28;20605;-61
2022/10/09 00:24:25;;;;;;;13.07;4.55;;;7.20;99.90;;;;;;5054017;28;20400;-60
2022/10/09 00:26:51;;;;;;;11.30;4.32;;;;;;;;;;5053806;28;20040;-60
2022/10/09 00:29:16;;;;;;;13.35;4.80;;;7.40;99.90;;;;;;5054248;28;20044;-60
2022/10/09 00:31:42;;;;;;;12.18;4.47;;;7.70;99.90;;;;;;5055064;28;20041;-60
2022/10/09 00:34:09;;;;;;;10.93;4.63;;;7.60;99.90;;;;;;5053482;28;20049;-60
2022/10/09 00:36:35;;;;;;;12.70;4.72;;;;;;;;;;5054755;28;20037;-60
2022/10/09 00:39:01;;;;;;;8.77;4.50;;;7.20;99.90;;;;;;5054754;28;20033;-60
2022/10/09 00:41:29;;;;;;;11.60;5.03;;;7.00;99.90;;;;;;5054673;28;20029;-61
2022/10/09 00:44:01;;;;;;;10.98;4.80;;;6.90;99.90;;;;;;5054931;28;20051;-60
2022/10/09 00:46:40;;;;;;;11.18;5.07;;;6.70;99.90;;;;;;5054822;28;20179;-59
2022/10/09 00:49:30;;;;;;;12.80;4.97;;;6.80;99.90;;;;;;5054658;28;20108;-60
2022/10/09 00:52:05;;;;;;;9.80;4.72;;;6.80;99.90;;;;;;5054345;28;20442;-60
2022/10/09 00:54:36;;;;;;;14.77;4.80;;;6.80;99.90;;;;;;5054658;28;20051;-60
2022/10/09 00:57:03;;;;;;;12.52;4.57;;;7.00;99.90;;;;;;5054316;28;20083;-60
2022/10/09 00:59:32;;;;;;;12.65;4.10;;;6.80;99.90;;;;;;5054230;28;20032;-60
2022/10/09 01:01:58;;;;;;;9.68;4.45;;;6.70;99.90;;;;;;5054376;28;20037;-60
2022/10/09 01:04:24;;;;;;;11.07;4.60;;;;;;;;;;5054145;28;20067;-60
2022/10/09 01:07:13;;;;;;;15.57;4.93;;;6.50;99.90;;;;;;5054626;28;20119;-59
2022/10/09 01:09:48;;;;;;;9.82;4.60;;;6.40;99.90;;;;;;5054446;28;20033;-60
2022/10/09 01:12:35;;;;;;;15.70;4.90;;;7.30;99.90;;;;;;5053976;28;20179;-60
2022/10/09 01:15:22;;;;;;;10.05;4.43;;;6.60;99.90;;;;;;5034323;28;20041;-59
2022/10/09 01:17:48;;;;;;;11.07;4.60;;;6.50;99.90;;;;;;5033753;28;20064;-60
2022/10/09 01:20:37;;;;;;;13.15;4.82;;;6.40;99.90;;;;;;5034132;28;20053;-60
2022/10/09 01:23:23;;;;;;;10.68;4.82;;;6.60;99.90;;;;;;5034059;28;20079;-59
2022/10/09 01:26:00;;;;;;;12.33;5.60;;;6.50;99.90;;;;;;5034145;28;20406;-60
2022/10/09 01:28:28;;;;;;;8.68;4.65;;;6.40;99.90;;;;;;5033761;28;20778;-60
2022/10/09 01:30:57;;;;;;;11.48;5.45;;;6.90;99.90;;;;;;5033740;28;20501;-60
2022/10/09 01:33:23;;;;;;;11.45;4.93;;;6.30;99.90;;;;;;5032412;28;20045;-60
2022/10/09 01:35:50;;;;;;;11.80;5.10;;;6.30;99.90;;;;;;5033646;28;20101;-59
2022/10/09 01:38:16;;;;;;;12.82;4.95;;;6.00;99.90;;;;;;5033923;28;20444;-60
2022/10/09 01:40:42;;;;;;;11.98;4.93;;;6.00;99.90;;;;;;5033261;28;20472;-60
2022/10/09 01:43:08;;;;;;;18.77;5.95;;;;;;;;;;5033864;28;20073;-59
2022/10/09 01:45:42;;;;;;;10.15;5.20;;;6.60;99.90;;;;;;5033635;28;20508;-60
2022/10/09 01:48:12;;;;;;;11.80;5.20;;;6.30;99.90;;;;;;5033385;28;20048;-60
2022/10/09 01:50:44;;;;;;;15.93;5.80;;;6.40;99.90;;;;;;5033014;28;20046;-60
2022/10/09 01:53:14;;;;;;;13.82;5.53;;;6.30;99.90;;;;;;5033570;28;20073;-60
2022/10/09 01:56:01;;;;;;;14.40;5.68;;;6.20;99.90;;;;;;5033499;28;20033;-60
2022/10/09 01:58:35;;;;;;;14.63;5.60;;;6.30;99.90;;;;;;5033420;28;20095;-60
2022/10/09 02:01:13;;;;;;;13.45;5.50;;;6.10;99.90;;;;;;5033688;28;20061;-58
2022/10/09 02:03:41;;;;;;;17.52;5.68;;;6.20;99.90;;;;;;5033619;28;20037;-58
2022/10/09 02:06:12;;;;;;;14.85;5.72;;;6.10;99.90;;;;;;5033354;28;20048;-58
2022/10/09 02:08:40;;;;;;;11.40;5.88;;;6.00;99.90;;;;;;5064956;28;20045;-58
2022/10/09 02:11:09;;;;;;;13.32;5.63;;;6.10;99.90;;;;;;5033143;28;20375;-58
2022/10/09 02:13:36;;;;;;;13.52;5.68;;;6.00;99.90;;;;;;5033139;28;20053;-58
2022/10/09 02:16:09;;;;;;;13.07;6.03;;;5.90;99.90;;;;;;5033062;28;20033;-58
2022/10/09 02:18:41;;;;;;;11.38;6.30;;;5.90;99.90;;;;;;5033121;28;20099;-58
2022/10/09 02:21:22;;;;;;;11.25;6.05;;;6.50;99.90;;;;;;5033146;28;20038;-58
2022/10/09 02:23:51;;;;;;;14.98;6.10;;;6.20;99.90;;;;;;5032999;28;20041;-58
2022/10/09 02:26:18;;;;;;;13.90;5.70;;;6.00;99.90;;;;;;5033226;28;20389;-58
2022/10/09 02:28:44;;;;;;;10.93;5.60;;;;;;;;;;5033124;28;20064;-58
2022/10/09 02:31:12;;;;;;;13.32;5.55;;;6.30;99.90;;;;;;5033377;28;20069;-58
2022/10/09 02:33:39;;;;;;;14.13;6.03;;;5.80;99.90;;;;;;5031977;28;20048;-58
2022/10/09 02:36:04;;;;;;;14.52;5.57;;;5.80;99.90;;;;;;5031664;28;20109;-58
2022/10/09 02:38:30;;;;;;;12.30;5.72;;;;;;;;;;5033189;28;20029;-58
2022/10/09 02:41:00;;;;;;;11.05;5.45;;;6.10;99.90;;;;;;5032981;28;20124;-58
2022/10/09 02:43:26;;;;;;;11.85;6.15;;;5.90;99.90;;;;;;5033715;28;20055;-58
2022/10/09 02:45:52;;;;;;;11.30;6.00;;;;;;;;;;5033024;28;20390;-58
2022/10/09 02:48:18;;;;;;;11.80;6.03;;;;;;;;;;5032522;28;20472;-58
2022/10/09 02:50:44;;;;;;;15.02;6.47;;;5.70;99.90;;;;;;5032770;28;20096;-58
2022/10/09 02:53:10;;;;;;;12.90;6.03;;;5.70;99.90;;;;;;5032744;28;20081;-58
2022/10/09 02:55:39;;;;;;;13.20;6.32;;;5.30;99.90;;;;;;5033126;28;20037;-58
2022/10/09 02:58:05;;;;;;;14.45;6.22;;;;;;;;;;5032780;28;20095;-58
2022/10/09 03:00:31;;;;;;;15.20;5.95;;;5.70;99.90;;;;;;5031798;28;20034;-58
2022/10/09 03:02:57;;;;;;;10.27;6.43;;;5.70;99.90;;;;;;5032772;28;20501;-58
2022/10/09 03:05:22;;;;;;;11.98;6.03;;;5.40;99.90;;;;;;5032725;28;20443;-58
2022/10/09 03:07:51;;;;;;;14.82;6.57;;;5.90;99.90;;;;;;5032832;28;20037;-58
2022/10/09 03:10:20;;;;;;;10.10;5.88;;;5.70;99.90;;;;;;5032945;28;20045;-58
2022/10/09 03:12:46;;;;;;;13.05;6.20;;;5.70;99.90;;;;;;5032721;28;20038;-58
2022/10/09 03:15:12;;;;;;;17.80;7.15;;;6.20;99.90;;;;;;5032634;28;20037;-58
2022/10/09 03:17:39;;;;;;;12.52;6.40;;;5.40;99.90;;;;;;5031544;28;20045;-58
2022/10/09 03:20:06;;;;;;;12.38;6.57;;;5.40;99.90;;;;;;5035985;28;20041;-58
2022/10/09 03:22:32;;;;;;;12.15;6.85;;;5.70;99.90;;;;;;5036615;28;20049;-58
2022/10/09 03:24:58;;;;;;;14.30;6.45;;;6.70;99.90;;;;;;5035547;28;20038;-58
2022/10/09 03:27:24;;;;;;;13.57;7.18;;;5.30;99.90;;;;;;5036338;28;20045;-58
2022/10/09 03:29:49;;;;;;;16.23;8.10;;;5.10;99.90;;;;;;5036076;28;20047;-58
2022/10/09 03:32:15;;;;;;;14.88;7.30;;;5.90;99.90;;;;;;5035947;28;20051;-58
2022/10/09 03:34:41;;;;;;;12.55;7.22;;;;;;;;;;5036270;28;20037;-58
2022/10/09 03:37:06;;;;;;;10.88;7.00;;;5.50;99.90;;;;;;5036177;28;20037;-58
2022/10/09 03:39:33;;;;;;;17.45;6.85;;;5.70;99.90;;;;;;5036161;28;20057;-58
2022/10/09 03:42:00;;;;;;;14.07;7.80;;;;;;;;;;5035789;28;20444;-58
2022/10/09 03:44:25;;;;;;;18.73;8.05;;;5.50;99.90;;;;;;5035579;28;20050;-58
2022/10/09 03:46:54;;;;;;;15.15;7.57;;;5.40;99.90;;;;;;5035707;28;20041;-58
2022/10/09 03:49:23;;;;;;;17.05;6.93;;;5.50;99.90;;;;;;5035844;28;20041;-58
2022/10/09 03:51:49;;;;;;;15.90;7.63;;;;;;;;;;5035949;28;20030;-58
2022/10/09 03:54:15;;;;;;;14.07;6.97;;;5.50;99.90;;;;;;5035600;28;20448;-57
2022/10/09 03:56:42;;;;;;;13.23;7.18;;;5.30;99.90;;;;;;5035669;28;20029;-57
2022/10/09 03:59:09;;;;;;;12.20;7.35;;;5.80;99.90;;;;;;5035679;28;20037;-58
2022/10/09 04:01:38;;;;;;;15.15;8.15;;;4.20;99.90;;;;;;5035549;28;20048;-58
2022/10/09 04:04:05;;;;;;;15.95;8.02;;;;;;;;;;5035680;28;20033;-58
2022/10/09 04:06:30;;;;;;;16.42;8.50;;;5.80;99.90;;;;;;5035400;28;20180;-58
2022/10/09 04:08:56;;;;;;;14.82;7.55;;;5.50;99.90;;;;;;5035361;28;20120;-58
2022/10/09 04:11:22;;;;;;;12.88;7.20;;;;;;;;;;5035340;28;20044;-59
2022/10/09 04:13:48;;;;;;;18.85;7.65;;;5.30;99.90;;;;;;5033927;28;20049;-58
2022/10/09 04:16:14;;;;;;;13.18;7.60;;;5.90;99.90;;;;;;5035176;28;20046;-58
2022/10/09 04:18:42;;;;;;;11.23;7.00;;;4.80;99.90;;;;;;5035087;28;20383;-58
2022/10/09 04:21:08;;;;;;;13.45;6.13;;;;;;;;;;5035336;28;20115;-58
2022/10/09 04:23:34;;;;;;;13.70;6.55;;;;;;;;;;5035461;28;20056;-58
2022/10/09 04:26:00;;;;;;;17.58;7.40;;;5.00;99.90;;;;;;5035211;28;20049;-58
2022/10/09 04:28:28;;;;;;;15.05;7.05;;;5.20;99.90;;;;;;5053861;28;20072;-58
2022/10/09 04:30:56;;;;;;;14.32;7.72;;;5.30;99.90;;;;;;5054350;28;20045;-58
2022/10/09 04:33:23;;;;;;;12.18;7.00;;;4.90;99.90;;;;;;5055014;28;20041;-58
2022/10/09 04:35:51;;;;;;;18.27;7.97;;;5.10;99.90;;;;;;5054958;28;20511;-59
2022/10/09 04:38:17;;;;;;;15.38;7.75;;;5.40;99.90;;;;;;5054879;28;20037;-58
2022/10/09 04:40:43;;;;;;;13.07;8.20;;;5.20;99.90;;;;;;5054736;28;20397;-62
2022/10/09 04:43:09;;;;;;;12.63;8.35;;;5.40;99.90;;;;;;5053034;28;20053;-60
2022/10/09 04:45:38;;;;;;;19.50;8.68;;;5.50;99.90;;;;;;5054476;28;20044;-58
2022/10/09 04:48:07;;;;;;;12.48;8.07;;;5.30;99.90;;;;;;5054898;28;20037;-58
2022/10/09 04:50:33;;;;;;;13.85;8.30;;;5.50;99.90;;;;;;5054848;28;20045;-58
2022/10/09 04:53:00;;;;;;;16.73;8.75;;;5.40;99.90;;;;;;5054439;28;20041;-58
2022/10/09 04:55:26;;;;;;;15.45;8.35;;;5.50;99.90;;;;;;5054441;28;20045;-59
2022/10/09 04:57:55;;;;;;;15.70;8.20;;;5.40;99.90;;;;;;5054105;28;20389;-58
2022/10/09 05:00:21;;;;;;;20.42;8.68;;;5.30;99.90;;;;;;5054178;28;20435;-58
2022/10/09 05:02:47;;;;;;;15.77;9.32;;;;;;;;;;5054241;28;20090;-59
2022/10/09 05:05:14;;;;;;;13.80;8.85;;;4.60;99.90;;;;;;5053194;28;20049;-59
2022/10/09 05:07:41;;;;;;;19.27;9.27;;;;;;;;;;5054125;28;20116;-58
2022/10/09 05:10:09;;;;;;;15.90;8.82;;;6.30;99.90;;;;;;5054092;28;20041;-58
2022/10/09 05:12:38;;;;;;;14.70;9.02;;;5.30;99.90;;;;;;5053986;28;20087;-58
2022/10/09 05:15:04;;;;;;;16.92;9.65;;;5.30;99.90;;;;;;5054117;28;20044;-58
2022/10/09 05:17:30;;;;;;;20.10;9.50;;;5.20;99.90;;;;;;5053776;28;20397;-58
2022/10/09 05:19:56;;;;;;;18.42;8.90;;;;;;;;;;5054318;28;20051;-58
2022/10/09 05:22:21;;;;;;;15.13;9.00;;;5.60;99.90;;;;;;5053658;28;20119;-58
2022/10/09 05:24:47;;;;;;;20.38;8.98;;;;;;;;;;5052532;28;20124;-58
2022/10/09 05:27:13;;;;;;;15.38;9.05;;;;;;;;;;5052668;28;20052;-58
2022/10/09 05:29:40;;;;;;;18.48;9.98;;;;;;;;;;5052921;28;20048;-58
2022/10/09 05:32:06;;;;;;;17.75;9.13;;;4.90;99.90;;;;;;5052616;28;20415;-57
2022/10/09 05:34:33;;;;;;;15.13;9.43;;;5.30;99.90;;;;;;5052577;28;20045;-58
2022/10/09 05:36:59;;;;;;;17.27;9.65;;;;;;;;;;5051494;28;20098;-58
2022/10/09 05:39:24;;;;;;;18.02;9.07;;;5.20;99.90;;;;;;5053449;28;20170;-58
2022/10/09 05:41:50;;;;;;;22.05;9.20;;;5.00;99.90;;;;;;5053124;28;20141;-58
2022/10/09 05:44:16;;;;;;;21.95;11.02;;;;;;;;;;5053244;28;20040;-58
2022/10/09 05:46:42;;;;;;;15.10;9.20;;;5.20;99.90;;;;;;5053586;28;20045;-57
2022/10/09 05:49:10;;;;;;;14.35;9.43;;;6.30;99.90;;;;;;5053294;28;20064;-58
2022/10/09 05:51:38;;;;;;;20.10;10.13;;;5.20;99.90;;;;;;5053355;28;20083;-58
2022/10/09 05:54:05;;;;;;;16.52;9.35;;;5.20;99.90;;;;;;5053110;28;20060;-58
2022/10/09 05:56:34;;;;;;;17.48;9.60;;;5.50;99.90;;;;;;5053644;28;20390;-58
2022/10/09 05:59:08;;;;;;;14.90;9.27;;;5.30;99.90;;;;;;5053463;28;20083;-58
2022/10/09 06:01:37;;;;;;;14.52;9.30;;;5.30;99.90;;;;;;5053210;28;20198;-58
2022/10/09 06:04:04;;;;;;;16.27;9.90;;;5.60;99.90;;;;;;5053318;28;20060;-58
2022/10/09 06:06:34;;;;;;;21.63;10.18;;;5.40;99.90;;;;;;5053011;28;20455;-58
2022/10/09 06:09:05;;;;;;;15.82;9.25;;;5.50;99.90;;;;;;5053355;28;20120;-58
2022/10/09 06:11:33;;;;;;;17.42;8.73;;;5.30;99.90;;;;;;5053314;28;20175;-58
2022/10/09 06:14:00;;;;;;;18.98;10.48;;;5.40;99.90;;;;;;5053462;28;20045;-58
2022/10/09 06:16:31;;;;;;;18.63;9.75;;;4.90;99.90;;;;;;5052950;28;20060;-58
2022/10/09 06:19:00;;;;;;;21.23;9.80;;;5.70;99.90;;;;;;5052744;28;20061;-58
2022/10/09 06:21:27;;;;;;;16.63;9.77;;;;;;;;;;5053391;28;20385;-58
2022/10/09 06:23:56;;;;;;;22.10;10.52;;;5.50;99.90;;;;;;5052925;28;20040;-58
2022/10/09 06:26:23;;;;;;;16.65;9.40;;;5.80;99.90;;;;;;5051984;28;20511;-58
2022/10/09 06:28:49;;;;;;;14.43;9.38;;;6.20;99.90;;;;;;5052087;28;20072;-58
2022/10/09 06:31:23;;;;;;;15.45;8.93;;;6.00;99.90;;;;;;5052908;28;20488;-58
2022/10/09 06:33:53;;;;;;;17.05;9.23;;;5.90;99.90;;;;;;5052892;28;20041;-58
2022/10/09 06:36:25;;;;;;;22.63;9.55;;;6.00;99.90;;;;;;5052528;28;20052;-58
2022/10/09 06:38:52;;;;;;;21.02;10.57;;;4.70;99.90;;;;;;5051896;28;20041;-58
2022/10/09 06:41:29;;;;;;;18.48;9.68;;;6.20;99.90;;;;;;5052948;28;20041;-58
2022/10/09 06:43:57;;;;;;;15.93;10.25;;;6.10;99.90;;;;;;5052675;28;20116;-58
2022/10/09 06:46:26;;;;;;;15.20;9.88;;;5.40;99.90;;;;;;5053036;28;20384;-58
2022/10/09 06:48:52;;;;;;;17.80;10.20;;;6.20;99.90;;;;;;5052667;28;20041;-58
2022/10/09 06:51:21;;;;;;;17.67;9.77;;;6.00;99.90;;;;;;5051767;28;20508;-58
2022/10/09 06:53:52;;;;;;;19.38;10.43;;;6.40;99.90;;;;;;5053977;28;20370;-58
2022/10/09 06:56:22;;;;;;;18.10;10.48;;;6.50;99.90;;;;;;5056649;28;20132;-58
2022/10/09 06:58:51;;;;;;;18.92;12.05;;;6.70;99.90;;;;;;5052965;28;20048;-58
2022/10/09 07:01:23;;;;;;;21.45;12.57;;;6.50;99.90;;;;;;5044186;28;20117;-58
2022/10/09 07:03:54;;;;;;;22.85;12.88;;;6.80;99.90;;;;;;5053594;28;20159;-58
2022/10/09 07:06:23;;;;;;;22.20;12.80;;;7.30;99.90;;;;;;5056860;28;20036;-58
2022/10/09 07:08:51;;;;;;;24.15;13.82;;;6.90;99.90;;;;;;5055108;28;20495;-58
2022/10/09 07:11:26;;;;;;;23.65;13.02;;;6.90;99.90;;;;;;5056476;28;20045;-58
2022/10/09 07:13:55;;;;;;;25.55;14.23;;;7.10;99.90;;;;;;5056459;28;20044;-59
2022/10/09 07:16:28;;;;;;;24.15;14.90;;;6.70;99.90;;;;;;5033252;28;20076;-58
2022/10/09 07:18:58;;;;;;;;;;;7.10;99.90;;;;;;5055340;28;20457;-58
2022/10/09 07:21:25;;;;;;;30.88;15.93;;;9.60;99.90;;;;;;5054887;28;19925;-58
2022/10/09 07:23:53;;;;;;;24.92;15.02;;;7.20;99.90;;;;;;5051805;28;20114;-58
2022/10/09 07:26:22;;;;;;;29.98;16.75;;;7.50;99.90;;;;;;5053556;28;20053;-58
2022/10/09 07:28:50;;;;;;;31.98;17.52;;;8.20;99.90;;;;;;5053258;28;20041;-58
2022/10/09 07:31:19;;;;;;;34.67;19.05;;;7.70;99.90;;;;;;5054611;28;20049;-59
2022/10/09 07:33:51;;;;;;;37.97;18.77;;;7.60;99.90;;;;;;5053043;28;20056;-59
2022/10/09 07:36:26;;;;;;;26.88;16.83;;;7.80;99.90;;;;;;5054831;28;20045;-57
2022/10/09 07:38:55;;;;;;;32.60;16.73;;;7.80;99.90;;;;;;5053109;28;20405;-57
2022/10/09 07:41:23;;;;;;;34.00;17.55;;;8.50;99.90;;;;;;5054865;28;20048;-56
2022/10/09 07:43:50;;;;;;;34.58;16.27;;;7.80;99.90;;;;;;5054646;28;20041;-57
2022/10/09 07:46:18;;;;;;;26.05;16.15;;;8.00;99.90;;;;;;5054078;28;20432;-57
2022/10/09 07:48:44;;;;;;;27.88;15.65;;;8.60;99.90;;;;;;5054379;28;20045;-57
2022/10/09 07:51:21;;;;;;;31.63;17.27;;;8.60;99.90;;;;;;5055459;28;20052;-57
2022/10/09 07:53:47;;;;;;;24.83;15.13;;;7.40;99.90;;;;;;5055709;28;20420;-57
2022/10/09 07:56:16;;;;;;;29.35;15.88;;;8.20;99.90;;;;;;5055378;28;20147;-57
2022/10/09 07:58:43;;;;;;;27.35;15.20;;;8.20;99.90;;;;;;5054390;28;20040;-57
2022/10/09 08:01:09;;;;;;;24.17;14.65;;;8.20;99.90;;;;;;5055306;28;20045;-57
2022/10/09 08:03:37;;;;;;;25.80;14.93;;;8.30;99.90;;;;;;5055645;28;20069;-57
2022/10/09 08:06:06;;;;;;;31.27;15.07;;;8.20;99.90;;;;;;5053380;28;20040;-57
2022/10/09 08:08:35;;;;;;;24.50;14.77;;;8.50;99.90;;;;;;5087794;28;20043;-57
2022/10/09 08:11:11;;;;;;;24.35;14.82;;;8.50;99.90;;;;;;5054007;28;20080;-56
2022/10/09 08:13:38;;;;;;;26.10;14.98;;;;;;;;;;5049948;28;20052;-57
2022/10/09 08:16:05;;;;;;;25.92;15.25;;;8.70;99.90;;;;;;5054903;28;20477;-57
2022/10/09 08:18:31;;;;;;;29.55;16.15;;;8.80;99.90;;;;;;5054915;28;20068;-57
2022/10/09 08:21:16;;;;;;;26.75;15.32;;;8.80;99.90;;;;;;5053128;28;20041;-57
2022/10/09 08:23:45;;;;;;;29.33;15.27;;;8.80;99.90;;;;;;5054578;28;20162;-57
2022/10/09 08:26:14;;;;;;;27.45;14.77;;;9.00;99.90;;;;;;5054945;28;20044;-57
2022/10/09 08:28:41;;;;;;;26.80;13.75;;;10.10;99.90;;;;;;5055140;28;20110;-57
2022/10/09 08:31:12;;;;;;;33.38;13.32;;;11.30;99.90;;;;;;5054819;28;20048;-57
2022/10/09 08:33:38;;;;;;;29.55;13.32;;;;;;;;;;5055130;28;20524;-58
2022/10/09 08:36:06;;;;;;;15.57;10.70;;;12.90;99.90;;;;;;5053583;28;20037;-57
2022/10/09 08:38:33;;;;;;;18.55;10.35;;;;;;;;;;5054684;28;20394;-57
2022/10/09 08:41:05;;;;;;;20.13;9.98;;;14.10;99.90;;;;;;5054579;28;20580;-57
2022/10/09 08:43:38;;;;;;;16.33;9.18;;;14.40;99.90;;;;;;5054572;28;20088;-57
2022/10/09 08:46:47;;;;;;;15.23;8.77;;;14.20;99.90;;;;;;5053460;28;20025;-57
2022/10/09 08:49:31;;;;;;;12.98;8.75;;;15.00;99.90;;;;;;5053093;28;20452;-58
2022/10/09 08:52:36;;;;;;;16.55;9.15;;;14.90;99.90;;;;;;5054551;28;20110;-58
2022/10/09 08:55:16;;;;;;;17.73;8.55;;;15.10;99.90;;;;;;5054576;28;20037;-58
2022/10/09 08:57:48;;;;;;;16.38;8.30;;;15.40;99.90;;;;;;5054614;28;20037;-57
2022/10/09 09:00:20;;;;;;;15.73;9.10;;;15.10;99.90;;;;;;5054535;28;20492;-58
2022/10/09 09:03:00;;;;;;;13.35;7.90;;;15.10;99.90;;;;;;5053141;28;20049;-60
2022/10/09 09:05:55;;;;;;;15.18;7.80;;;15.10;99.90;;;;;;5053975;28;20048;-60
2022/10/09 09:08:43;;;;;;;15.97;7.73;;;15.20;99.90;;;;;;5054468;28;20528;-60
2022/10/09 09:11:27;;;;;;;16.00;7.65;;;15.10;99.90;;;;;;5054140;28;20060;-60
2022/10/09 09:14:18;;;;;;;18.10;7.50;;;15.40;99.90;;;;;;5053904;28;20465;-61
2022/10/09 09:17:24;;;;;;;15.07;7.50;;;15.60;99.90;;;;;;5053745;28;20493;-61
2022/10/09 09:20:02;;;;;;;18.23;7.60;;;15.50;99.90;;;;;;5053809;28;20045;-60
2022/10/09 09:22:30;;;;;;;13.63;6.85;;;15.50;99.90;;;;;;5054043;28;20044;-60
2022/10/09 09:24:58;;;;;;;13.68;6.85;;;15.40;99.90;;;;;;5052617;28;20051;-61
2022/10/09 09:27:31;;;;;;;17.85;7.20;;;15.40;99.90;;;;;;5052596;28;20084;-60
2022/10/09 09:30:23;;;;;;;14.45;6.47;;;15.70;99.90;;;;;;5053835;28;20055;-60
2022/10/09 09:33:16;;;;;;;12.43;6.80;;;15.70;99.90;;;;;;5053259;28;20106;-61
2022/10/09 09:35:58;;;;;;;;;;;15.40;99.90;;;;;;5051886;28;20055;-61
2022/10/09 09:38:26;;;;;;;14.32;6.25;;;15.90;99.90;;;;;;5051496;28;19998;-61
2022/10/09 09:40:56;;;;;;;13.52;6.85;;;15.30;99.90;;;;;;5051481;28;20505;-60
2022/10/09 09:43:31;;;;;;;14.82;6.15;;;15.30;99.90;;;;;;5051764;28;20041;-60
2022/10/09 09:46:00;;;;;;;15.23;6.03;;;15.40;99.90;;;;;;5051354;28;20612;-60
2022/10/09 09:48:36;;;;;;;13.68;6.05;;;15.30;99.90;;;;;;5051306;28;20037;-59
2022/10/09 09:51:12;;;;;;;13.68;5.97;;;15.60;99.90;;;;;;5051266;28;20044;-60
2022/10/09 09:53:48;;;;;;;13.00;5.45;;;15.30;99.90;;;;;;5051207;28;20049;-60
2022/10/09 09:56:15;;;;;;;14.82;5.60;;;15.40;99.90;;;;;;5051237;28;20460;-60
2022/10/09 09:58:49;;;;;;;13.55;5.70;;;15.30;99.90;;;;;;5051156;28;20373;-60
2022/10/09 10:01:26;;;;;;;13.45;5.43;;;15.70;99.90;;;;;;5051145;28;20121;-60
2022/10/09 10:03:56;;;;;;;15.20;5.40;;;15.70;99.90;;;;;;5051237;28;20116;-60
2022/10/09 10:06:22;;;;;;;13.85;4.97;;;;;;;;;;5051046;28;20115;-61
2022/10/09 10:09:18;;;;;;;13.52;5.65;;;15.90;99.90;;;;;;5067377;28;20044;-60
2022/10/09 10:11:56;;;;;;;13.25;5.15;;;15.90;99.90;;;;;;5047852;28;20515;-61
2022/10/09 10:14:23;;;;;;;15.35;5.18;;;15.10;99.90;;;;;;5052938;28;20037;-60
2022/10/09 10:16:51;;;;;;;15.27;4.95;;;15.20;99.90;;;;;;5051822;28;20041;-60
2022/10/09 10:19:19;;;;;;;10.80;4.43;;;15.30;99.90;;;;;;5052817;28;20045;-60
2022/10/09 10:22:05;;;;;;;15.38;4.90;;;15.80;99.90;;;;;;5052866;28;20489;-60
2022/10/09 10:24:44;;;;;;;13.52;5.03;;;15.40;99.90;;;;;;5053124;28;20424;-60
2022/10/09 10:27:14;;;;;;;12.68;4.60;;;15.10;99.90;;;;;;5053220;28;20045;-60
2022/10/09 10:29:45;;;;;;;12.93;4.65;;;15.00;99.90;;;;;;5052333;28;20037;-59
2022/10/09 10:32:31;;;;;;;12.48;4.32;;;15.40;99.90;;;;;;5052874;28;20111;-60
2022/10/09 10:35:17;;;;;;;12.02;4.80;;;15.10;99.90;;;;;;5053131;28;20049;-60
2022/10/09 10:37:57;;;;;;;;;;;15.30;99.90;;;;;;5053596;28;20087;-60
2022/10/09 10:40:36;;;;;;;9.13;4.00;;;15.40;99.90;;;;;;5052964;28;19962;-60
2022/10/09 10:43:08;;;;;;;12.45;4.57;;;15.40;99.90;;;;;;5051638;28;20523;-60
2022/10/09 10:45:59;;;;;;;10.13;4.00;;;15.30;99.90;;;;;;5052802;28;20087;-60
2022/10/09 10:48:40;;;;;;;11.20;3.70;;;15.10;99.90;;;;;;5051763;28;20079;-60
2022/10/09 10:51:29;;;;;;;10.23;3.20;;;15.20;99.90;;;;;;5040366;28;20049;-60
2022/10/09 10:54:18;;;;;;;9.93;3.60;;;15.30;99.90;;;;;;5081255;28;20049;-60
2022/10/09 10:57:19;;;;;;;13.00;3.35;;;15.20;99.90;;;;;;5051504;28;20075;-60
2022/10/09 11:00:05;;;;;;;11.13;3.67;;;15.00;99.90;;;;;;5051578;28;20083;-61
2022/10/09 11:03:12;;;;;;;11.50;3.33;;;15.90;99.90;;;;;;5050749;28;20448;-60
2022/10/09 11:05:52;;;;;;;11.63;3.35;;;15.70;99.90;;;;;;5051282;28;20118;-60
2022/10/09 11:08:53;;;;;;;8.27;3.00;;;15.50;99.90;;;;;;5051707;28;20552;-60
2022/10/09 11:11:32;;;;;;;10.63;3.58;;;15.80;99.90;;;;;;5040983;28;20045;-60
2022/10/09 11:14:17;;;;;;;11.07;2.80;;;16.20;99.90;;;;;;5031882;28;20055;-60
2022/10/09 11:17:01;;;;;;;10.13;3.10;;;16.20;99.90;;;;;;5031406;28;20037;-61
2022/10/09 11:19:38;;;;;;;9.35;2.42;;;16.00;99.90;;;;;;5046723;28;20056;-60
2022/10/09 11:22:36;;;;;;;7.43;2.42;;;15.50;99.90;;;;;;5051593;28;20052;-60
2022/10/09 11:25:14;;;;;;;9.80;2.65;;;15.90;99.90;;;;;;5051568;28;20515;-61
2022/10/09 11:27:50;;;;;;;7.38;2.50;;;16.10;99.90;;;;;;5051057;28;20041;-61
2022/10/09 11:30:17;;;;;;;7.65;2.50;;;16.10;99.90;;;;;;5050583;28;20527;-61
2022/10/09 11:32:58;;;;;;;8.50;2.80;;;16.00;99.90;;;;;;5052167;28;20485;-61
2022/10/09 11:35:36;;;;;;;7.72;2.50;;;16.50;99.90;;;;;;5052331;28;20535;-61
2022/10/09 11:38:06;;;;;;;9.85;2.72;;;16.70;99.90;;;;;;5052673;28;20033;-61
2022/10/09 11:40:38;;;;;;;7.82;2.60;;;16.10;99.90;;;;;;5053069;28;20315;-61
2022/10/09 11:43:25;;;;;;;9.80;2.90;;;16.50;99.90;;;;;;5056030;28;20127;-61
2022/10/09 11:46:08;;;;;;;9.38;3.00;;;16.70;99.90;;;;;;5055785;28;20056;-61
2022/10/09 11:48:53;;;;;;;9.55;3.00;;;16.60;99.90;;;;;;5056008;28;20131;-62
2022/10/09 11:51:34;;;;;;;7.23;2.90;;;16.20;99.90;;;;;;5054451;28;20033;-61
2022/10/09 11:54:02;;;;;;;11.63;3.13;;;16.20;99.90;;;;;;5050718;28;20361;-61
2022/10/09 11:56:30;;;;;;;7.43;3.10;;;16.50;99.90;;;;;;5052352;28;20313;-61
2022/10/09 11:59:06;;;;;;;8.68;3.13;;;16.60;99.90;;;;;;5050996;28;20045;-61
2022/10/09 12:01:50;;;;;;;;;;;16.70;99.90;;;;;;5046491;28;20044;-60
2022/10/09 12:04:28;;;;;;;12.57;3.25;;;16.70;99.90;;;;;;5051861;28;20425;-60
2022/10/09 12:07:03;;;;;;;11.35;3.20;;;17.00;99.90;;;;;;5050806;28;20084;-61
2022/10/09 12:09:37;;;;;;;11.38;3.00;;;17.10;99.90;;;;;;5035468;28;20049;-60
2022/10/09 12:12:15;;;;;;;7.80;2.83;;;16.90;99.90;;;;;;5075206;28;20037;-60
2022/10/09 12:14:46;;;;;;;9.80;3.40;;;17.00;99.90;;;;;;5045618;28;20044;-60
2022/10/09 12:17:20;;;;;;;11.43;2.83;;;17.40;99.90;;;;;;5047172;28;20078;-61
2022/10/09 12:19:52;;;;;;;8.07;2.70;;;17.30;99.90;;;;;;5042984;28;20067;-60
2022/10/09 12:22:27;;;;;;;9.23;2.95;;;17.30;99.90;;;;;;5042815;28;20130;-60
2022/10/09 12:24:56;;;;;;;9.40;3.33;;;17.40;99.90;;;;;;5050353;28;20037;-61
2022/10/09 12:27:41;;;;;;;14.45;3.28;;;17.90;99.90;;;;;;5051104;28;20080;-61
2022/10/09 12:30:11;;;;;;;9.40;2.90;;;17.30;99.90;;;;;;5050423;28;20599;-60
2022/10/09 12:33:00;;;;;;;11.23;3.30;;;17.30;99.90;;;;;;5051837;28;20037;-61
2022/10/09 12:35:37;;;;;;;9.50;3.30;;;17.20;99.90;;;;;;5051226;28;20040;-61
2022/10/09 12:38:25;;;;;;;8.48;2.88;;;17.40;99.90;;;;;;5060551;28;20040;-61
2022/10/09 12:40:53;;;;;;;10.77;3.00;;;17.40;99.90;;;;;;5071282;28;20439;-61
2022/10/09 12:43:21;;;;;;;10.60;3.63;;;17.70;99.90;;;;;;5070411;28;20102;-61
2022/10/09 12:45:49;;;;;;;10.90;3.10;;;17.50;99.90;;;;;;5071772;28;20040;-61
2022/10/09 12:48:24;;;;;;;12.30;3.03;;;17.90;99.90;;;;;;5069926;28;20571;-61
2022/10/09 12:50:52;;;;;;;;;;;17.80;99.90;;;;;;5069685;28;20135;-61
2022/10/09 12:53:25;;;;;;;10.55;3.03;;;17.80;99.90;;;;;;5068862;28;19921;-61
2022/10/09 12:55:58;;;;;;;8.70;3.22;;;17.50;99.90;;;;;;5054527;28;20052;-61
2022/10/09 12:58:31;;;;;;;10.50;3.45;;;17.70;99.90;;;;;;5053457;28;20091;-61
2022/10/09 13:01:04;;;;;;;9.60;3.22;;;18.20;99.90;;;;;;5054108;28;20044;-61
2022/10/09 13:03:36;;;;;;;6.22;3.05;;;17.60;99.90;;;;;;5054470;28;20105;-61
2022/10/09 13:06:16;;;;;;;10.93;3.20;;;17.90;99.90;;;;;;5054300;28;20037;-61
2022/10/09 13:08:42;;;;;;;12.73;3.50;;;18.10;99.90;;;;;;5054311;28;20047;-61
2022/10/09 13:11:27;;;;;;;10.35;3.60;;;17.60;99.90;;;;;;5053773;28;20060;-61
2022/10/09 13:13:53;;;;;;;10.32;3.50;;;17.90;99.90;;;;;;5054006;28;20041;-61
2022/10/09 13:16:21;;;;;;;10.13;3.38;;;17.70;99.90;;;;;;5054356;28;20037;-61